sensor_id;sensor_type;location;lat;lon;timestamp;temperature;humidity
19928;DHT22;10126;50.876;4.470;2023-02-18T00:00:38;11.30;99.90
19928;DHT22;10126;50.876;4.470;2023-02-18T00:02:39;11.30;99.90
19928;DHT22;10126;50.876;4.470;2023-02-18T00:04:39;11.30;99.90
19928;DHT22;10126;50.876;4.470;2023-02-18T00:06:40;11.40;99.90
19928;DHT22;10126;50.876;4.470;2023-02-18T00:08:42;11.30;99.90
19928;DHT22;10126;50.876;4.470;2023-02-18T00:10:43;11.40;99.90
19928;DHT22;10126;50.876;4.470;2023-02-18T00:12:43;11.40;99.90
19928;DHT22;10126;50.876;4.470;2023-02-18T00:14:44;11.40;99.90
19928;DHT22;10126;50.876;4.470;2023-02-18T00:16:45;11.50;99.90
19928;DHT22;10126;50.876;4.470;2023-02-18T00:18:46;11.30;99.90
19928;DHT22;10126;50.876;4.470;2023-02-18T00:20:46;11.40;99.90
19928;DHT22;10126;50.876;4.470;2023-02-18T00:22:47;11.50;99.90
19928;DHT22;10126;50.876;4.470;2023-02-18T00:24:48;11.40;99.90
19928;DHT22;10126;50.876;4.470;2023-02-18T00:26:52;11.40;99.90
19928;DHT22;10126;50.876;4.470;2023-02-18T00:28:52;11.40;99.90
19928;DHT22;10126;50.876;4.470;2023-02-18T00:30:53;11.40;99.90
19928;DHT22;10126;50.876;4.470;2023-02-18T00:32:54;11.50;99.90
19928;DHT22;10126;50.876;4.470;2023-02-18T00:34:55;11.30;99.90
19928;DHT22;10126;50.876;4.470;2023-02-18T00:36:55;11.40;99.90
19928;DHT22;10126;50.876;4.470;2023-02-18T00:38:59;11.40;99.90
19928;DHT22;10126;50.876;4.470;2023-02-18T00:41:00;11.40;99.90
19928;DHT22;10126;50.876;4.470;2023-02-18T00:43:01;11.50;99.90
19928;DHT22;10126;50.876;4.470;2023-02-18T00:45:01;11.40;99.90
19928;DHT22;10126;50.876;4.470;2023-02-18T00:47:02;11.40;99.90
19928;DHT22;10126;50.876;4.470;2023-02-18T00:49:04;11.40;99.90
19928;DHT22;10126;50.876;4.470;2023-02-18T00:51:05;11.30;99.90
19928;DHT22;10126;50.876;4.470;2023-02-18T00:53:06;11.30;99.90
19928;DHT22;10126;50.876;4.470;2023-02-18T00:55:07;11.30;99.90
19928;DHT22;10126;50.876;4.470;2023-02-18T00:57:08;11.30;99.90
19928;DHT22;10126;50.876;4.470;2023-02-18T00:59:08;11.30;99.90
19928;DHT22;10126;50.876;4.470;2023-02-18T01:01:10;11.30;99.90
19928;DHT22;10126;50.876;4.470;2023-02-18T01:03:11;11.30;99.90
19928;DHT22;10126;50.876;4.470;2023-02-18T01:05:12;11.30;99.90
19928;DHT22;10126;50.876;4.470;2023-02-18T01:07:12;11.30;99.90
19928;DHT22;10126;50.876;4.470;2023-02-18T01:09:13;11.20;99.90
19928;DHT22;10126;50.876;4.470;2023-02-18T01:11:14;11.20;99.90
19928;DHT22;10126;50.876;4.470;2023-02-18T01:13:15;11.20;99.90
19928;DHT22;10126;50.876;4.470;2023-02-18T01:15:17;11.10;99.90
19928;DHT22;10126;50.876;4.470;2023-02-18T01:17:17;11.10;99.90
19928;DHT22;10126;50.876;4.470;2023-02-18T01:19:18;11.10;99.90
19928;DHT22;10126;50.876;4.470;2023-02-18T01:21:19;11.20;99.90
19928;DHT22;10126;50.876;4.470;2023-02-18T01:23:20;11.10;99.90
19928;DHT22;10126;50.876;4.470;2023-02-18T01:25:21;11.20;99.90
19928;DHT22;10126;50.876;4.470;2023-02-18T01:27:22;11.10;99.90
19928;DHT22;10126;50.876;4.470;2023-02-18T01:29:23;11.10;99.90
19928;DHT22;10126;50.876;4.470;2023-02-18T01:31:23;11.20;99.90
19928;DHT22;10126;50.876;4.470;2023-02-18T01:33:24;11.10;99.90
19928;DHT22;10126;50.876;4.470;2023-02-18T01:35:24;11.10;99.90
19928;DHT22;10126;50.876;4.470;2023-02-18T01:37:25;11.10;99.90
19928;DHT22;10126;50.876;4.470;2023-02-18T01:39:26;11.10;99.90
19928;DHT22;10126;50.876;4.470;2023-02-18T01:41:26;11.10;99.90
19928;DHT22;10126;50.876;4.470;2023-02-18T01:43:27;11.10;99.90
19928;DHT22;10126;50.876;4.470;2023-02-18T01:47:34;11.00;99.90
19928;DHT22;10126;50.876;4.470;2023-02-18T01:49:36;11.10;99.90
19928;DHT22;10126;50.876;4.470;2023-02-18T01:51:41;11.00;99.90
19928;DHT22;10126;50.876;4.470;2023-02-18T01:54:02;11.10;99.90
19928;DHT22;10126;50.876;4.470;2023-02-18T01:56:05;11.10;99.90
19928;DHT22;10126;50.876;4.470;2023-02-18T01:58:08;11.10;99.90
19928;DHT22;10126;50.876;4.470;2023-02-18T02:00:13;11.00;99.90
19928;DHT22;10126;50.876;4.470;2023-02-18T02:02:18;11.10;99.90
19928;DHT22;10126;50.876;4.470;2023-02-18T02:04:19;11.10;99.90
19928;DHT22;10126;50.876;4.470;2023-02-18T02:06:21;11.00;99.90
19928;DHT22;10126;50.876;4.470;2023-02-18T02:08:22;11.00;99.90
19928;DHT22;10126;50.876;4.470;2023-02-18T02:10:25;11.00;99.90
19928;DHT22;10126;50.876;4.470;2023-02-18T02:12:46;11.00;99.90
19928;DHT22;10126;50.876;4.470;2023-02-18T02:23:02;11.00;99.90
19928;DHT22;10126;50.876;4.470;2023-02-18T02:25:06;11.00;99.90
19928;DHT22;10126;50.876;4.470;2023-02-18T02:27:19;10.90;99.90
19928;DHT22;10126;50.876;4.470;2023-02-18T02:32:15;10.90;99.90
19928;DHT22;10126;50.876;4.470;2023-02-18T02:36:52;10.90;99.90
19928;DHT22;10126;50.876;4.470;2023-02-18T02:38:55;10.90;99.90
19928;DHT22;10126;50.876;4.470;2023-02-18T02:46:16;10.90;99.90
19928;DHT22;10126;50.876;4.470;2023-02-18T02:48:36;10.90;99.90
19928;DHT22;10126;50.876;4.470;2023-02-18T02:53:16;10.90;99.90
19928;DHT22;10126;50.876;4.470;2023-02-18T02:55:19;10.90;99.90
19928;DHT22;10126;50.876;4.470;2023-02-18T02:59:24;10.90;99.90
19928;DHT22;10126;50.876;4.470;2023-02-18T03:11:18;10.90;99.90
19928;DHT22;10126;50.876;4.470;2023-02-18T03:13:45;10.80;99.90
19928;DHT22;10126;50.876;4.470;2023-02-18T03:20:36;10.80;99.90
19928;DHT22;10126;50.876;4.470;2023-02-18T03:22:43;10.90;99.90
19928;DHT22;10126;50.876;4.470;2023-02-18T03:24:46;10.90;99.90
19928;DHT22;10126;50.876;4.470;2023-02-18T03:26:52;10.80;99.90
19928;DHT22;10126;50.876;4.470;2023-02-18T03:28:56;10.80;99.90
19928;DHT22;10126;50.876;4.470;2023-02-18T03:31:03;10.70;99.90
19928;DHT22;10126;50.876;4.470;2023-02-18T03:33:07;10.70;99.90
19928;DHT22;10126;50.876;4.470;2023-02-18T03:35:14;10.70;99.90
19928;DHT22;10126;50.876;4.470;2023-02-18T03:37:15;10.70;99.90
19928;DHT22;10126;50.876;4.470;2023-02-18T03:39:18;10.70;99.90
19928;DHT22;10126;50.876;4.470;2023-02-18T03:41:19;10.70;99.90
19928;DHT22;10126;50.876;4.470;2023-02-18T03:43:20;10.70;99.90
19928;DHT22;10126;50.876;4.470;2023-02-18T03:45:21;10.70;99.90
19928;DHT22;10126;50.876;4.470;2023-02-18T03:47:22;10.70;99.90
19928;DHT22;10126;50.876;4.470;2023-02-18T03:49:22;10.70;99.90
19928;DHT22;10126;50.876;4.470;2023-02-18T03:51:23;10.70;99.90
19928;DHT22;10126;50.876;4.470;2023-02-18T03:53:24;10.70;99.90
19928;DHT22;10126;50.876;4.470;2023-02-18T03:55:24;10.70;99.90
19928;DHT22;10126;50.876;4.470;2023-02-18T03:57:25;10.70;99.90
19928;DHT22;10126;50.876;4.470;2023-02-18T03:59:25;10.60;99.90
19928;DHT22;10126;50.876;4.470;2023-02-18T04:01:26;10.60;99.90
19928;DHT22;10126;50.876;4.470;2023-02-18T04:03:27;10.70;99.90
19928;DHT22;10126;50.876;4.470;2023-02-18T04:05:27;10.70;99.90
19928;DHT22;10126;50.876;4.470;2023-02-18T04:07:28;10.70;99.90
19928;DHT22;10126;50.876;4.470;2023-02-18T04:09:29;10.60;99.90
19928;DHT22;10126;50.876;4.470;2023-02-18T04:11:29;10.60;99.90
19928;DHT22;10126;50.876;4.470;2023-02-18T04:13:30;10.70;99.90
19928;DHT22;10126;50.876;4.470;2023-02-18T04:15:31;10.70;99.90
19928;DHT22;10126;50.876;4.470;2023-02-18T04:17:32;10.70;99.90
19928;DHT22;10126;50.876;4.470;2023-02-18T04:19:33;10.60;99.90
19928;DHT22;10126;50.876;4.470;2023-02-18T04:21:33;10.60;99.90
19928;DHT22;10126;50.876;4.470;2023-02-18T04:23:34;10.60;99.90
19928;DHT22;10126;50.876;4.470;2023-02-18T04:25:35;10.60;99.90
19928;DHT22;10126;50.876;4.470;2023-02-18T04:27:36;10.60;99.90
19928;DHT22;10126;50.876;4.470;2023-02-18T04:29:36;10.60;99.90
19928;DHT22;10126;50.876;4.470;2023-02-18T04:31:37;10.60;99.90
19928;DHT22;10126;50.876;4.470;2023-02-18T04:33:38;10.60;99.90
19928;DHT22;10126;50.876;4.470;2023-02-18T04:35:38;10.50;99.90
19928;DHT22;10126;50.876;4.470;2023-02-18T04:37:42;10.50;99.90
19928;DHT22;10126;50.876;4.470;2023-02-18T04:39:42;10.50;99.90
19928;DHT22;10126;50.876;4.470;2023-02-18T04:41:43;10.40;99.90
19928;DHT22;10126;50.876;4.470;2023-02-18T04:43:44;10.40;99.90
19928;DHT22;10126;50.876;4.470;2023-02-18T04:45:44;10.50;99.90
19928;DHT22;10126;50.876;4.470;2023-02-18T04:47:45;10.50;99.90
19928;DHT22;10126;50.876;4.470;2023-02-18T04:49:46;10.50;99.90
19928;DHT22;10126;50.876;4.470;2023-02-18T04:51:46;10.60;99.90
19928;DHT22;10126;50.876;4.470;2023-02-18T04:53:47;10.60;99.90
19928;DHT22;10126;50.876;4.470;2023-02-18T04:55:52;10.50;99.90
19928;DHT22;10126;50.876;4.470;2023-02-18T04:57:52;10.60;99.90
19928;DHT22;10126;50.876;4.470;2023-02-18T04:59:53;10.60;99.90
19928;DHT22;10126;50.876;4.470;2023-02-18T05:01:54;10.60;99.90
19928;DHT22;10126;50.876;4.470;2023-02-18T05:03:55;10.50;99.90
19928;DHT22;10126;50.876;4.470;2023-02-18T05:05:55;10.60;99.90
19928;DHT22;10126;50.876;4.470;2023-02-18T05:07:56;10.60;99.90
19928;DHT22;10126;50.876;4.470;2023-02-18T05:09:57;10.60;99.90
19928;DHT22;10126;50.876;4.470;2023-02-18T05:11:57;10.60;99.90
19928;DHT22;10126;50.876;4.470;2023-02-18T05:13:58;10.60;99.90
19928;DHT22;10126;50.876;4.470;2023-02-18T05:15:59;10.60;99.90
19928;DHT22;10126;50.876;4.470;2023-02-18T05:17:59;10.60;99.90
19928;DHT22;10126;50.876;4.470;2023-02-18T05:20:00;10.60;99.90
19928;DHT22;10126;50.876;4.470;2023-02-18T05:22:01;10.70;99.90
19928;DHT22;10126;50.876;4.470;2023-02-18T05:24:01;10.60;99.90
19928;DHT22;10126;50.876;4.470;2023-02-18T05:26:03;10.60;99.90
19928;DHT22;10126;50.876;4.470;2023-02-18T05:28:04;10.60;99.90
19928;DHT22;10126;50.876;4.470;2023-02-18T05:30:05;10.70;99.90
19928;DHT22;10126;50.876;4.470;2023-02-18T05:32:05;10.60;99.90
19928;DHT22;10126;50.876;4.470;2023-02-18T05:34:06;10.50;99.90
19928;DHT22;10126;50.876;4.470;2023-02-18T05:36:07;10.50;99.90
19928;DHT22;10126;50.876;4.470;2023-02-18T05:38:08;10.50;99.90
19928;DHT22;10126;50.876;4.470;2023-02-18T05:40:10;10.40;99.90
19928;DHT22;10126;50.876;4.470;2023-02-18T05:42:11;10.30;99.90
19928;DHT22;10126;50.876;4.470;2023-02-18T05:44:12;10.30;99.90
19928;DHT22;10126;50.876;4.470;2023-02-18T05:46:31;10.20;99.90
19928;DHT22;10126;50.876;4.470;2023-02-18T05:48:32;10.20;99.90
19928;DHT22;10126;50.876;4.470;2023-02-18T05:50:33;10.20;99.90
19928;DHT22;10126;50.876;4.470;2023-02-18T05:52:34;10.10;99.90
19928;DHT22;10126;50.876;4.470;2023-02-18T05:54:35;10.20;99.90
19928;DHT22;10126;50.876;4.470;2023-02-18T05:56:36;10.20;99.90
19928;DHT22;10126;50.876;4.470;2023-02-18T05:58:36;10.30;99.90
19928;DHT22;10126;50.876;4.470;2023-02-18T06:00:37;10.20;99.90
19928;DHT22;10126;50.876;4.470;2023-02-18T06:02:38;10.20;99.90
19928;DHT22;10126;50.876;4.470;2023-02-18T06:04:38;10.20;99.90
19928;DHT22;10126;50.876;4.470;2023-02-18T06:06:40;10.20;99.90
19928;DHT22;10126;50.876;4.470;2023-02-18T06:08:41;10.20;99.90
19928;DHT22;10126;50.876;4.470;2023-02-18T06:10:42;10.10;99.90
19928;DHT22;10126;50.876;4.470;2023-02-18T06:12:43;10.20;99.90
19928;DHT22;10126;50.876;4.470;2023-02-18T06:14:44;10.10;99.90
19928;DHT22;10126;50.876;4.470;2023-02-18T06:16:45;10.10;99.90
19928;DHT22;10126;50.876;4.470;2023-02-18T06:18:45;10.10;99.90
19928;DHT22;10126;50.876;4.470;2023-02-18T06:20:47;10.20;99.90
19928;DHT22;10126;50.876;4.470;2023-02-18T06:22:47;10.20;99.90
19928;DHT22;10126;50.876;4.470;2023-02-18T06:24:48;10.20;99.90
19928;DHT22;10126;50.876;4.470;2023-02-18T06:26:48;10.20;99.90
19928;DHT22;10126;50.876;4.470;2023-02-18T06:28:49;10.10;99.90
19928;DHT22;10126;50.876;4.470;2023-02-18T06:30:50;10.10;99.90
19928;DHT22;10126;50.876;4.470;2023-02-18T06:32:51;10.10;99.90
19928;DHT22;10126;50.876;4.470;2023-02-18T06:34:51;10.10;99.90
19928;DHT22;10126;50.876;4.470;2023-02-18T06:36:52;10.10;99.90
19928;DHT22;10126;50.876;4.470;2023-02-18T06:38:53;10.10;99.90
19928;DHT22;10126;50.876;4.470;2023-02-18T06:40:56;10.10;99.90
19928;DHT22;10126;50.876;4.470;2023-02-18T06:42:57;10.20;99.90
19928;DHT22;10126;50.876;4.470;2023-02-18T06:44:57;10.20;99.90
19928;DHT22;10126;50.876;4.470;2023-02-18T06:46:58;10.20;99.90
19928;DHT22;10126;50.876;4.470;2023-02-18T06:48:59;10.10;99.90
19928;DHT22;10126;50.876;4.470;2023-02-18T06:51:00;10.10;99.90
19928;DHT22;10126;50.876;4.470;2023-02-18T06:53:00;10.10;99.90
19928;DHT22;10126;50.876;4.470;2023-02-18T06:55:01;10.10;99.90
19928;DHT22;10126;50.876;4.470;2023-02-18T06:57:02;10.10;99.90
19928;DHT22;10126;50.876;4.470;2023-02-18T06:59:03;10.10;99.90
19928;DHT22;10126;50.876;4.470;2023-02-18T07:01:04;10.10;99.90
19928;DHT22;10126;50.876;4.470;2023-02-18T07:03:05;10.10;99.90
19928;DHT22;10126;50.876;4.470;2023-02-18T07:05:06;10.20;99.90
19928;DHT22;10126;50.876;4.470;2023-02-18T07:07:06;10.20;99.90
19928;DHT22;10126;50.876;4.470;2023-02-18T07:09:07;10.20;99.90
19928;DHT22;10126;50.876;4.470;2023-02-18T07:11:08;10.20;99.90
19928;DHT22;10126;50.876;4.470;2023-02-18T07:13:09;10.10;99.90
19928;DHT22;10126;50.876;4.470;2023-02-18T07:15:10;10.20;99.90
19928;DHT22;10126;50.876;4.470;2023-02-18T07:17:10;10.10;99.90
19928;DHT22;10126;50.876;4.470;2023-02-18T07:19:11;10.20;99.90
19928;DHT22;10126;50.876;4.470;2023-02-18T07:21:12;10.30;99.90
19928;DHT22;10126;50.876;4.470;2023-02-18T07:23:12;10.30;99.90
19928;DHT22;10126;50.876;4.470;2023-02-18T07:25:13;10.40;99.90
19928;DHT22;10126;50.876;4.470;2023-02-18T07:27:14;10.30;99.90
19928;DHT22;10126;50.876;4.470;2023-02-18T07:29:14;10.30;99.90
19928;DHT22;10126;50.876;4.470;2023-02-18T07:31:15;10.30;99.90
19928;DHT22;10126;50.876;4.470;2023-02-18T07:33:16;10.30;99.90
19928;DHT22;10126;50.876;4.470;2023-02-18T07:35:17;10.30;99.90
19928;DHT22;10126;50.876;4.470;2023-02-18T07:37:19;10.30;99.90
19928;DHT22;10126;50.876;4.470;2023-02-18T07:39:20;10.40;99.90
19928;DHT22;10126;50.876;4.470;2023-02-18T07:41:21;10.40;99.90
19928;DHT22;10126;50.876;4.470;2023-02-18T07:43:22;10.50;99.90
19928;DHT22;10126;50.876;4.470;2023-02-18T07:45:23;10.50;99.90
19928;DHT22;10126;50.876;4.470;2023-02-18T07:47:23;10.50;99.90
19928;DHT22;10126;50.876;4.470;2023-02-18T07:49:24;10.50;99.90
19928;DHT22;10126;50.876;4.470;2023-02-18T07:51:25;10.50;99.90
19928;DHT22;10126;50.876;4.470;2023-02-18T07:53:25;10.60;99.90
19928;DHT22;10126;50.876;4.470;2023-02-18T07:55:26;10.60;99.90
19928;DHT22;10126;50.876;4.470;2023-02-18T07:57:47;10.60;99.90
19928;DHT22;10126;50.876;4.470;2023-02-18T08:00:02;10.70;99.90
19928;DHT22;10126;50.876;4.470;2023-02-18T08:02:03;10.70;99.90
19928;DHT22;10126;50.876;4.470;2023-02-18T08:04:04;10.70;99.90
19928;DHT22;10126;50.876;4.470;2023-02-18T08:06:06;10.70;99.90
19928;DHT22;10126;50.876;4.470;2023-02-18T08:08:08;10.80;99.90
19928;DHT22;10126;50.876;4.470;2023-02-18T08:10:09;10.90;99.90
19928;DHT22;10126;50.876;4.470;2023-02-18T08:12:10;10.90;99.90
19928;DHT22;10126;50.876;4.470;2023-02-18T08:14:11;11.00;99.90
19928;DHT22;10126;50.876;4.470;2023-02-18T08:16:11;10.90;99.90
19928;DHT22;10126;50.876;4.470;2023-02-18T08:18:17;10.90;99.90
19928;DHT22;10126;50.876;4.470;2023-02-18T08:20:19;10.80;99.90
19928;DHT22;10126;50.876;4.470;2023-02-18T08:22:19;10.80;99.90
19928;DHT22;10126;50.876;4.470;2023-02-18T08:24:20;10.90;99.90
19928;DHT22;10126;50.876;4.470;2023-02-18T08:26:20;10.80;99.90
19928;DHT22;10126;50.876;4.470;2023-02-18T08:28:22;10.80;99.90
19928;DHT22;10126;50.876;4.470;2023-02-18T08:30:23;10.80;99.90
19928;DHT22;10126;50.876;4.470;2023-02-18T08:32:27;10.90;99.90
19928;DHT22;10126;50.876;4.470;2023-02-18T08:34:28;10.80;99.90
19928;DHT22;10126;50.876;4.470;2023-02-18T08:36:29;10.90;99.90
19928;DHT22;10126;50.876;4.470;2023-02-18T08:38:30;11.00;99.90
19928;DHT22;10126;50.876;4.470;2023-02-18T08:40:30;11.00;99.90
19928;DHT22;10126;50.876;4.470;2023-02-18T08:42:31;11.00;99.90
19928;DHT22;10126;50.876;4.470;2023-02-18T08:44:32;11.10;99.90
19928;DHT22;10126;50.876;4.470;2023-02-18T08:46:32;11.20;99.90
19928;DHT22;10126;50.876;4.470;2023-02-18T08:48:33;11.20;99.90
19928;DHT22;10126;50.876;4.470;2023-02-18T08:50:34;11.20;99.90
19928;DHT22;10126;50.876;4.470;2023-02-18T08:52:35;11.30;99.90
19928;DHT22;10126;50.876;4.470;2023-02-18T08:54:35;11.40;99.90
19928;DHT22;10126;50.876;4.470;2023-02-18T08:56:36;11.60;99.90
19928;DHT22;10126;50.876;4.470;2023-02-18T08:58:37;11.50;99.90
19928;DHT22;10126;50.876;4.470;2023-02-18T09:00:39;11.40;99.90
19928;DHT22;10126;50.876;4.470;2023-02-18T09:02:39;11.40;99.90
19928;DHT22;10126;50.876;4.470;2023-02-18T09:04:40;11.50;99.90
19928;DHT22;10126;50.876;4.470;2023-02-18T09:06:41;11.50;99.90
19928;DHT22;10126;50.876;4.470;2023-02-18T09:08:41;11.60;99.90
19928;DHT22;10126;50.876;4.470;2023-02-18T09:10:42;11.60;99.90
19928;DHT22;10126;50.876;4.470;2023-02-18T09:12:43;11.60;99.90
19928;DHT22;10126;50.876;4.470;2023-02-18T09:14:46;11.60;99.90
19928;DHT22;10126;50.876;4.470;2023-02-18T09:16:47;11.70;99.90
19928;DHT22;10126;50.876;4.470;2023-02-18T09:18:49;11.60;99.90
19928;DHT22;10126;50.876;4.470;2023-02-18T09:20:50;11.40;99.90
19928;DHT22;10126;50.876;4.470;2023-02-18T09:22:51;11.40;99.90
19928;DHT22;10126;50.876;4.470;2023-02-18T09:24:51;11.40;99.90
19928;DHT22;10126;50.876;4.470;2023-02-18T09:26:52;11.50;99.90
19928;DHT22;10126;50.876;4.470;2023-02-18T09:28:55;11.50;99.90
19928;DHT22;10126;50.876;4.470;2023-02-18T09:30:56;11.50;99.90
19928;DHT22;10126;50.876;4.470;2023-02-18T09:32:56;11.50;99.90
19928;DHT22;10126;50.876;4.470;2023-02-18T09:34:57;11.60;99.90
19928;DHT22;10126;50.876;4.470;2023-02-18T09:36:58;11.60;99.90
19928;DHT22;10126;50.876;4.470;2023-02-18T09:38:58;11.70;99.90
19928;DHT22;10126;50.876;4.470;2023-02-18T09:41:02;11.70;99.90
19928;DHT22;10126;50.876;4.470;2023-02-18T09:43:04;11.60;99.90
19928;DHT22;10126;50.876;4.470;2023-02-18T09:45:06;11.70;99.90
19928;DHT22;10126;50.876;4.470;2023-02-18T09:49:20;11.70;99.90
19928;DHT22;10126;50.876;4.470;2023-02-18T09:51:22;11.70;99.90
19928;DHT22;10126;50.876;4.470;2023-02-18T09:53:24;11.70;99.90
19928;DHT22;10126;50.876;4.470;2023-02-18T09:55:37;11.80;99.90
19928;DHT22;10126;50.876;4.470;2023-02-18T09:57:49;11.80;99.90
19928;DHT22;10126;50.876;4.470;2023-02-18T09:59:58;11.90;99.90
19928;DHT22;10126;50.876;4.470;2023-02-18T10:01:59;11.80;99.90
19928;DHT22;10126;50.876;4.470;2023-02-18T10:09:56;11.80;99.90
19928;DHT22;10126;50.876;4.470;2023-02-18T10:12:17;11.90;99.90
19928;DHT22;10126;50.876;4.470;2023-02-18T10:14:18;11.90;99.90
19928;DHT22;10126;50.876;4.470;2023-02-18T10:16:21;11.80;99.90
19928;DHT22;10126;50.876;4.470;2023-02-18T10:18:32;11.90;99.90
19928;DHT22;10126;50.876;4.470;2023-02-18T10:20:35;11.90;99.90
19928;DHT22;10126;50.876;4.470;2023-02-18T10:22:36;11.90;99.90
19928;DHT22;10126;50.876;4.470;2023-02-18T10:26:51;11.90;99.90
19928;DHT22;10126;50.876;4.470;2023-02-18T10:28:52;11.90;99.90
19928;DHT22;10126;50.876;4.470;2023-02-18T10:31:06;12.00;99.90
19928;DHT22;10126;50.876;4.470;2023-02-18T10:35:39;12.20;99.90
19928;DHT22;10126;50.876;4.470;2023-02-18T10:51:27;12.10;99.90
19928;DHT22;10126;50.876;4.470;2023-02-18T10:53:40;12.10;99.90
19928;DHT22;10126;50.876;4.470;2023-02-18T10:55:45;12.10;99.90
19928;DHT22;10126;50.876;4.470;2023-02-18T10:57:51;12.00;99.90
19928;DHT22;10126;50.876;4.470;2023-02-18T11:00:20;12.00;99.90
19928;DHT22;10126;50.876;4.470;2023-02-18T11:02:26;12.00;99.90
19928;DHT22;10126;50.876;4.470;2023-02-18T11:04:39;12.10;99.90
19928;DHT22;10126;50.876;4.470;2023-02-18T11:06:50;12.10;99.90
19928;DHT22;10126;50.876;4.470;2023-02-18T11:08:52;12.10;99.90
19928;DHT22;10126;50.876;4.470;2023-02-18T11:10:56;12.10;99.90
19928;DHT22;10126;50.876;4.470;2023-02-18T11:13:00;12.00;99.90
19928;DHT22;10126;50.876;4.470;2023-02-18T11:15:06;12.00;99.90
19928;DHT22;10126;50.876;4.470;2023-02-18T11:17:31;12.10;99.90
19928;DHT22;10126;50.876;4.470;2023-02-18T11:19:37;12.20;99.90
19928;DHT22;10126;50.876;4.470;2023-02-18T11:21:38;12.10;99.90
19928;DHT22;10126;50.876;4.470;2023-02-18T11:23:47;12.10;99.90
19928;DHT22;10126;50.876;4.470;2023-02-18T11:26:05;12.10;99.90
19928;DHT22;10126;50.876;4.470;2023-02-18T11:30:57;12.20;99.90
19928;DHT22;10126;50.876;4.470;2023-02-18T11:33:05;12.30;99.90
19928;DHT22;10126;50.876;4.470;2023-02-18T11:35:19;12.20;99.90
19928;DHT22;10126;50.876;4.470;2023-02-18T11:37:21;12.30;99.90
19928;DHT22;10126;50.876;4.470;2023-02-18T11:39:27;12.30;99.90
19928;DHT22;10126;50.876;4.470;2023-02-18T11:41:32;12.20;99.90
19928;DHT22;10126;50.876;4.470;2023-02-18T11:43:33;12.30;99.90
19928;DHT22;10126;50.876;4.470;2023-02-18T11:45:34;12.40;99.90
19928;DHT22;10126;50.876;4.470;2023-02-18T11:47:36;12.30;99.90
19928;DHT22;10126;50.876;4.470;2023-02-18T11:49:37;12.20;99.90
19928;DHT22;10126;50.876;4.470;2023-02-18T11:51:39;12.20;99.90
19928;DHT22;10126;50.876;4.470;2023-02-18T11:53:56;12.30;99.90
19928;DHT22;10126;50.876;4.470;2023-02-18T11:56:05;12.30;99.90
19928;DHT22;10126;50.876;4.470;2023-02-18T11:58:09;12.40;99.90
19928;DHT22;10126;50.876;4.470;2023-02-18T12:00:34;12.40;99.90
19928;DHT22;10126;50.876;4.470;2023-02-18T12:02:37;12.50;99.90
19928;DHT22;10126;50.876;4.470;2023-02-18T12:04:40;12.40;99.90
19928;DHT22;10126;50.876;4.470;2023-02-18T12:08:55;12.50;99.90
19928;DHT22;10126;50.876;4.470;2023-02-18T12:11:08;12.30;99.90
19928;DHT22;10126;50.876;4.470;2023-02-18T12:13:34;12.40;99.90
19928;DHT22;10126;50.876;4.470;2023-02-18T12:41:47;12.50;99.90
19928;DHT22;10126;50.876;4.470;2023-02-18T12:44:21;12.50;99.90
19928;DHT22;10126;50.876;4.470;2023-02-18T13:01:51;12.30;99.90
19928;DHT22;10126;50.876;4.470;2023-02-18T13:08:49;11.80;99.90
19928;DHT22;10126;50.876;4.470;2023-02-18T13:13:07;11.80;99.90
19928;DHT22;10126;50.876;4.470;2023-02-18T13:15:51;11.70;99.90
19928;DHT22;10126;50.876;4.470;2023-02-18T13:17:45;11.60;99.90
19928;DHT22;10126;50.876;4.470;2023-02-18T13:19:55;11.50;99.90
19928;DHT22;10126;50.876;4.470;2023-02-18T13:22:01;11.60;99.90
19928;DHT22;10126;50.876;4.470;2023-02-18T13:24:35;11.60;99.90
19928;DHT22;10126;50.876;4.470;2023-02-18T13:26:37;11.60;99.90
19928;DHT22;10126;50.876;4.470;2023-02-18T13:40:43;11.30;99.90
19928;DHT22;10126;50.876;4.470;2023-02-18T13:42:44;11.40;99.90
19928;DHT22;10126;50.876;4.470;2023-02-18T13:46:53;11.50;99.90
19928;DHT22;10126;50.876;4.470;2023-02-18T13:49:04;11.60;99.90
19928;DHT22;10126;50.876;4.470;2023-02-18T13:51:06;11.50;99.90
19928;DHT22;10126;50.876;4.470;2023-02-18T13:55:18;11.50;99.90
19928;DHT22;10126;50.876;4.470;2023-02-18T13:57:21;11.40;99.90
19928;DHT22;10126;50.876;4.470;2023-02-18T13:59:44;11.40;99.90
19928;DHT22;10126;50.876;4.470;2023-02-18T14:01:50;11.30;99.90
19928;DHT22;10126;50.876;4.470;2023-02-18T14:03:54;11.30;99.90
19928;DHT22;10126;50.876;4.470;2023-02-18T14:05:55;11.30;99.90
19928;DHT22;10126;50.876;4.470;2023-02-18T14:08:14;11.30;99.90
19928;DHT22;10126;50.876;4.470;2023-02-18T14:10:32;11.40;99.90
19928;DHT22;10126;50.876;4.470;2023-02-18T14:14:57;11.30;99.90
19928;DHT22;10126;50.876;4.470;2023-02-18T14:19:27;11.40;99.90
19928;DHT22;10126;50.876;4.470;2023-02-18T14:21:40;11.40;99.90
19928;DHT22;10126;50.876;4.470;2023-02-18T14:23:43;11.30;99.90
19928;DHT22;10126;50.876;4.470;2023-02-18T14:30:40;11.20;99.90
19928;DHT22;10126;50.876;4.470;2023-02-18T14:32:43;11.20;99.90
19928;DHT22;10126;50.876;4.470;2023-02-18T14:34:48;11.30;99.90
19928;DHT22;10126;50.876;4.470;2023-02-18T14:42:14;11.40;99.90
19928;DHT22;10126;50.876;4.470;2023-02-18T14:44:35;11.40;99.90
19928;DHT22;10126;50.876;4.470;2023-02-18T14:47:15;11.40;99.90
19928;DHT22;10126;50.876;4.470;2023-02-18T14:51:43;11.50;99.90
19928;DHT22;10126;50.876;4.470;2023-02-18T14:53:47;11.50;99.90
19928;DHT22;10126;50.876;4.470;2023-02-18T14:55:53;11.50;99.90
19928;DHT22;10126;50.876;4.470;2023-02-18T14:58:00;11.50;99.90
19928;DHT22;10126;50.876;4.470;2023-02-18T15:00:02;11.50;99.90
19928;DHT22;10126;50.876;4.470;2023-02-18T15:02:17;11.50;99.90
19928;DHT22;10126;50.876;4.470;2023-02-18T15:04:18;11.60;99.90
19928;DHT22;10126;50.876;4.470;2023-02-18T15:06:29;11.70;99.90
19928;DHT22;10126;50.876;4.470;2023-02-18T15:08:36;11.70;99.90
19928;DHT22;10126;50.876;4.470;2023-02-18T15:10:47;11.70;99.90
19928;DHT22;10126;50.876;4.470;2023-02-18T15:12:49;11.60;99.90
19928;DHT22;10126;50.876;4.470;2023-02-18T15:14:52;11.70;99.90
19928;DHT22;10126;50.876;4.470;2023-02-18T15:16:53;11.60;99.90
19928;DHT22;10126;50.876;4.470;2023-02-18T15:19:00;11.80;99.90
19928;DHT22;10126;50.876;4.470;2023-02-18T15:21:12;11.80;99.90
19928;DHT22;10126;50.876;4.470;2023-02-18T15:23:16;11.80;99.90
19928;DHT22;10126;50.876;4.470;2023-02-18T15:25:17;11.80;99.90
19928;DHT22;10126;50.876;4.470;2023-02-18T15:27:22;11.90;99.90
19928;DHT22;10126;50.876;4.470;2023-02-18T15:29:26;11.80;99.90
19928;DHT22;10126;50.876;4.470;2023-02-18T15:31:36;11.80;99.90
19928;DHT22;10126;50.876;4.470;2023-02-18T15:33:42;11.80;99.90